Florida AWOS List, Phone Numbers

USA |  
| Search AWOS

Rocky Mountain States: Montana | Wyoming | Colorado | New Mexico

Complete weather reports: Florida

Legend: KFNL = METAR available Follow your local AWOS on AV Mobile = METAR available on AV Mobile
Station Florida Location Frequency Phone
KAQQICAO ID KAQQ Apalachicola, Apalachicola
KAAFFAA ID AAF, ASOS, KAAF 031853Z AUTO 24017G25KT 10SM CLR 34/25 A2989 RMK AO2 SLP123 T03440250 Follow KAAF on AV Mobile APALACHICOLA MUNICIPAL AIRPORT 119.925 850-653-8271
KNAEICAO ID KNAE Astor, Bombing Range Detachment Astor
KAVOFAA ID AVO, AWOS-3 AVON PARK 118.725 863-453-4223
KAGRFAA ID AGR Avon Park Gunnery Range
KBOWFAA ID BOW, AWOS-3, KBOW 031847Z 18005KT 10SM BKN018 OVC080 26/23 A2999 Follow KBOW on AV Mobile Bartow Municipal 123.775 863-533-9004
F95FAA ID F95, AWOS-AV, K88M 031905Z AUTO 00000KT 7SM 29/04 A2981 Follow  on AV Mobile BLOUNTSTOWN 119.350 850-674-1347
KBCTFAA ID BCT, AWOS-3, KBCT 031848Z 16010KT 10SM SCT040 30/23 A2999 Follow KBCT on AV Mobile Boca Raton, Boca Raton Airport 121.125 561-391-2696
K1J0FAA ID 1J0, K1J0 031758Z AUTO VRB03KT 10SM FEW060 36/19 A2989 RMK AO2 SLP080 T03560189 10356 20233 58006 Follow K1J0 on AV Mobile TRI COUNTY AIRPORT
KBKVFAA ID BKV, ASOS, KBKV 031853Z 17010KT 10SM BKN008 OVC016 24/23 A2997 RMK AO2 RAE22 CIG 006V012 SLP146 P0000 T02440233 Follow KBKV on AV Mobile BROOKSVILLE HERNANDO CO AIRPORT 134.725 352-799-5881
K1J4ICAO ID K1J4 Cape San Blas Coast Guard Station
KNZCICAO ID KNZC Cecil, Naval Air Station
KCLWFAA ID CLW, AWOS-3P, KCLW 031855Z AUTO 24012G15KT 10SM BKN014 BKN100 26/23 A2996 RMK AO2 Follow KCLW on AV Mobile CLEARWATER 119.225 727-449-2184
2ISFAA ID 2IS, AWOS-3, K88M 031905Z AUTO 00000KT 7SM 29/04 A2981 Follow  on AV Mobile CLEWISTON 124.175 863-983-7020
KX53ICAO ID KX53 Clewiston
KCOFFAA ID COF, KCOF 031758Z AUTO 24014KT 10SM CLR 28/22 A2997 RMK AO2 SLP153 60000 T02760224 10300 20258 58002 Follow KCOF on AV Mobile Cocoa / Patrick Air Force Base
KXMRFAA ID XMR, KXMR 031758Z AUTO 25013KT 10SM CLR 27/22 A2996 RMK AO2 CIG 120 RWY31 SLP148 T02740223 10296 20247 58002 $ Follow KXMR on AV Mobile Cocoa Beach, Cape Canaveral Air Force Station Skid Strip
KCEWFAA ID CEW, ASOS, KCEW 031853Z AUTO VRB03KT 10SM CLR 36/14 A2991 RMK AO2 SLP124 T03610144 Follow KCEW on AV Mobile CRESTVIEW SIKES AIRPORT 119.275 850-682-1237
KEGIFAA ID EGI, KEGI 031855Z 35006KT 10SM FEW050 SCT250 36/15 A2990 RMK AO2A SLP125 T03630148 $ Follow KEGI on AV Mobile Duke Field / Eglin Auxiliary
KCTYFAA ID CTY, KCTY 031853Z AUTO 25008KT 30/26 A2989 RMK AO1 SLP120 T03000261 Follow KCTY on AV Mobile CROSS CITY AIRPORT
KCGCFAA ID CGC, AWOS-3, KCGC 031855Z AUTO 24010G20KT 190V260 10SM SCT016 28/23 A2991 RMK AO2 Follow KCGC on AV Mobile CRYSTAL RIVER 118.325 352-563-6600
KDABFAA ID DAB, ASOS, KDAB 031853Z 22018G24KT 10SM BKN021 BKN070 BKN250 27/22 A2994 RMK AO2 PK WND 22027/1841 SLP137 T02720222 Follow KDAB on AV Mobile DAYTONA BEACH INTERNATIONAL 386-253-7469
54JFAA ID 54J, AWOS-3P, K88M 031905Z AUTO 00000KT 7SM 29/04 A2981 Follow  on AV Mobile DEFUNIAK SPRINGS 118.725 850-892-0147
KDEDFAA ID DED, AWOS-3, KDED 031835Z AUTO 20013G21KT 25/22 A2995 RMK AO1 Follow KDED on AV Mobile DELAND 119.575 386-740-5811
KDTSFAA ID DTS, ASOS, KDTS 031853Z AUTO 23006KT 10SM SCT100 33/24 A2990 RMK AO2 SLP123 T03280239 TSNO Follow KDTS on AV Mobile DESTIN-FT WALTON BEACH AIRPORT 133.925 850-654-7128
KX91ICAO ID KX91 Egmont Key Coast Guard Station
KFHBFAA ID FHB, AWOS-3, KFHB 031835Z AUTO 18008KT 10SM BKN012 OVC017 28/25 A2985 RMK AO1 LTG DSNT N AND NE Follow KFHB on AV Mobile FERNANDINA BEACH 118.075 904-277-7323
KFXEFAA ID FXE, ASOS, KFXE 031853Z 20009G18KT 10SM SCT035 SCT050 29/22 A2999 RMK AO2 SLP159 T02940217 Follow KFXE on AV Mobile FORT LAUDERDALE EXECUTIVE 954-772-2537
KFLLFAA ID FLL, ASOS, KFLL 031853Z 24013KT 10SM BKN032CB BKN055 BKN250 27/22 A3000 RMK AO2 PK WND 24028/1835 WSHFT 1824 SLP159 CB W-SW MOV NE T02720217 Follow KFLL on AV Mobile FORT LAUDERDALE/HOLLYWOOD 954-359-7857
KFMYFAA ID FMY, ASOS, KFMY 031853Z 32010KT 10SM SCT100 27/21 A3000 RMK AO2 SLP162 T02670206 Follow KFMY on AV Mobile FORT MYERS PAGE FIELD 239-936-2318
KRSWFAA ID RSW, ASOS, KRSW 031853Z 31008KT 10SM CLR 27/21 A3001 RMK AO2 SLP161 T02670206 Follow KRSW on AV Mobile FORT MYERS SW FL INTERNATIONAL AIRPORT 239-561-0966
KX82ICAO ID KX82 Fort Pierce Coast Guard Station
KFPRFAA ID FPR, ASOS, KFPR 031853Z 27013KT 10SM CLR 31/23 A2998 RMK AO2 SLP151 T03110228 Follow KFPR on AV Mobile FORT PIERCE ST LUCIE 772-489-4281
KX86ICAO ID KX86 Fowey Rocks Coast Guard Station
KX89ICAO ID KX89 Ft. Myers Beach Coast Guard Station
KGNVFAA ID GNV, ASOS, KGNV 031853Z A2988 RMK AO2 SLPNO PNO $ Follow KGNV on AV Mobile GAINESVILLE REGIONAL AIRPORT 352-335-8672
KHWOFAA ID HWO, ASOS, KHWO 031853Z 19005KT 1 1/2SM RA BKN026 OVC060 23/20 A3005 RMK AO2 PK WND 23028/1817 WSHFT 1755 RAB00 SLP175 P0017 T02280200 Follow KHWO on AV Mobile HOLLYWOOD NORTH PERRY AIRPORT 954-983-5904
X51FAA ID X51, AWOS-3, K88M 031905Z AUTO 00000KT 7SM 29/04 A2981 Follow  on AV Mobile HOMESTEAD 118.375 (305) 247-2791
KHSTFAA ID HST, KHST 031845Z AUTO 31020G23KT 10SM -RA VCTS SCT032 BKN040 25/22 A3003 RMK AO2 LTG DSNT NW RAB45 Follow KHST on AV Mobile Homestead Air Force Base
KIMMFAA ID IMM, AWOS-3, KIMM 161355Z AUTO 10007KT FEW016 A3015 RMK A01 P000 Follow KIMM on AV Mobile IMMOKALEE 118.525 239-657-2038
KINFFAA ID INF, AWOS-3, KINF 031855Z AUTO 17009KT 7SM -RA OVC012 24/24 A2994 RMK AO2 Follow KINF on AV Mobile INVERNESS 119.975 352-341-0264
KX84ICAO ID KX84 Islamorada Coast Guard Station
KHEGFAA ID HEG, AWOS-3 JACKSONVILLE 119.275 904-695-0334
KCRGFAA ID CRG, ASOS, KCRG 031853Z 19007KT 5SM -RA BR BKN008 BKN011 OVC022 27/25 A2986 RMK AO2 RAB12 SLP111 P0000 T02670250 Follow KCRG on AV Mobile JACKSONVILLE CRAIG MUN 904-646-4670
KJAXFAA ID JAX, ASOS, KJAX 031856Z 14009KT 10SM BKN017 BKN027 BKN040 BKN250 28/25 A2985 RMK AO2 SLP109 T02830250 Follow KJAX on AV Mobile JACKSONVILLE INTERNATIONAL 904-741-4304
KNIPFAA ID NIP, KNIP 031853Z 23008KT 7SM -RA SCT006 BKN025 OVC040 28/25 A2987 RMK AO2 SLP110 T2 SET P0005 T02830250 Follow KNIP on AV Mobile JACKSONVILLE NAVAL AIR STN
KVQQFAA ID VQQ, AWOS-3, KVQQ 031800Z 00000KT 2SM BR OVC009 28/25 A2987 Follow KVQQ on AV Mobile Jacksonville, Cecil Field Airport 125.275 904-778-6934
KNENFAA ID NEN NOLF WHITEHOUSE FIELD, FL
KX80ICAO ID KX80 Jupiter Inlet Coast Guard Station
KEYWFAA ID EYW, ASOS, KEYW 031853Z 18007KT 10SM CLR 31/23 A2999 RMK AO2 SLP155 T03110233 Follow KEYW on AV Mobile KEY WEST INTERNATIONAL AIRPORT 119.65 305-292-4046
KNQXFAA ID NQX, KNQX 031853Z 19007KT 10SM SCT035 BKN060 BKN120 32/23 A2999 RMK AO2 SLP153 T03170233 $ Follow KNQX on AV Mobile KEY WEST NAVAL AIR STATION
K42JFAA ID 42J, AWOS-3, K42J 031855Z AUTO 27009KT 3/4SM OVC001 26/26 A2990 RMK AO1 TSNO Follow K42J on AV Mobile KEYSTONE HEIGHTS 124.275 352-473-8273
KLCQFAA ID LCQ, AWOS-3, KLCQ 031835Z AUTO 29007KT 10SM SCT018 SCT033 OVC042 28/25 A2989 RMK AO2 LTG DSNT N Follow KLCQ on AV Mobile LAKE CITY 120.675 386-754-9366
X07FAA ID X07, AWOS-3, K88M 031905Z AUTO 00000KT 7SM 29/04 A2981 Follow  on AV Mobile LAKE WALES 124.225 863-678-1334
KX81ICAO ID KX81 Lake Worth Inlet
KLALFAA ID LAL, AWOS-3PT, KLAL 031850Z 22011KT 7SM SCT012 BKN019 26/23 A2998 Follow KLAL on AV Mobile Lakeland Regional 118.025 863-834-2030
KLEEFAA ID LEE, ASOS, KLEE 031853Z 21012KT 10SM BKN009 BKN017 OVC047 24/22 A2996 RMK AO2 SLP143 T02390222 Follow KLEE on AV Mobile LEESBURG REGIONAL AIRPORT 134.325 352-787-1565
24JFAA ID 24J, AWOS-3, K88M 031905Z AUTO 00000KT 7SM 29/04 A2981 Follow  on AV Mobile LIVE OAK 118.225 386-362-1731
KX88ICAO ID KX88 Marathon Coast Guard Station
KMTHFAA ID MTH, ASOS, KMTH 031853Z AUTO 19005KT 10SM CLR 32/25 A2999 RMK AO2 LTG DSNT NE AND E SLP156 T03220250 Follow KMTH on AV Mobile MARATHON AIRPORT 135.525 305-743-8373
KMKYFAA ID MKY, AWOS-3, KMKY 031855Z AUTO 33011G16KT 10SM CLR 30/21 A3001 RMK AO1 Follow KMKY on AV Mobile MARCO ISLAND 120.075 239-394-8187
KMAIFAA ID MAI, ASOS, KMAI 031853Z AUTO 00000KT 10SM CLR 34/22 A2988 RMK AO2 SLP114 T03440222 Follow KMAI on AV Mobile MARIANNA MUNICIPAL AIRPORT 133.525 850-482-6082
KHRTFAA ID HRT, KHRT 031758Z AUTO 17009KT 10SM CLR 33/23 A2990 RMK AO2 RAB48E49DZB49 SLP127 P0000 60000 T03250227 10348 20265 50001 $ Follow KHRT on AV Mobile Hurlburt Field
KNRBFAA ID NRB, KNRB 031852Z 20011KT 2SM -RA BR BKN006 OVC025 27/26 A2986 RMK AO2 RAB44 SLP112 P0000 T02720256 $ Follow KNRB on AV Mobile MAYPORT NAVAL AIR FACILITY
KMLBFAA ID MLB, ASOS, KMLB 031853Z 24012KT 10SM FEW050 BKN120 28/23 A2997 RMK AO2 SLP148 T02830228 Follow KMLB on AV Mobile MELBOURNE INTERNATIONAL 321-723-7403
KCOIFAA ID COI, AWOS-3 Merritt Island, Merritt Island Airport 119.025 321-986-8864
KTNTFAA ID TNT, AWOS-3 MIAMI 119.075 (239) 695-9198
KX87ICAO ID KX87 Miami Beach Coast Guard Station
KAMXICAO ID KAMX Miami Nexrad
KTMBFAA ID TMB, ASOS, KTMB 031853Z 21007KT 10SM -RA FEW031 BKN060 OVC090 23/22 A3005 RMK AO2 WSHFT 1821 LTG DSNT N AND NE AND SW SLP174 T02280217 PNO $ Follow KTMB on AV Mobile KENDALL-TAMIAMI EXEC AIRPORT 305-235-1332
KMIAFAA ID MIA, ASOS, KMIA 031853Z 21004KT 10SM SCT030CB BKN055 OVC250 25/22 A3003 RMK AO2 RAB16E46 TSE51 SLP170 CB OHD AND ALQDS MOV E P0004 T02500217 Follow KMIA on AV Mobile MIAMI INTERNATIONAL AIRPORT 305-870-0235
KOPFFAA ID OPF, KOPF 031855Z 06006KT 6SM RA BR BKN037 OVC060 24/23 A3004 Follow KOPF on AV Mobile MIAMI OPA LOCKA AIRPORT
KNFJFAA ID NFJ CHOCTAW, WHITING FIELD, NOLF
KNSEFAA ID NSE, KNSE 031756Z VRB03KT 10SM FEW040 SCT250 35/14 A2991 RMK AO2 SLP112 T03500144 10356 20244 58003 $ Follow KNSE on AV Mobile MILTON WHITING FIELD (NORTH)
KNDZFAA ID NDZ, KNDZ 031856Z 29005KT 10SM FEW045 SCT250 37/17 A2990 RMK AO2 SLP109 T03720167 $ Follow KNDZ on AV Mobile MILTON WHITING FIELD (SOUTH)
KAPFFAA ID APF, ASOS, KAPF 031853Z AUTO 34009KT 9SM CLR 29/22 A3001 RMK AO2 SLP162 T02940222 Follow KAPF on AV Mobile NAPLES MUNICIPAL AIRPORT 239-643-9886
KRRFICAO ID KRRF New Port Richey, Tampa Bay Executive Airport
KEVBFAA ID EVB, AWOS-3, KEVB 031847Z 22019G26KT 10SM BKN015 BKN100 25/22 A2994 Follow KEVB on AV Mobile New Smyrna Beach, New Smyrna Beach Municipal Airport 124.625 386-409-4705
KOCFFAA ID OCF, AWOS-3, KOCF 031850Z 21014G18KT 6SM -RA BR OVC011 26/24 A2991 Follow KOCF on AV Mobile Ocala, Ocala International Airport-Jim Taylor Field 128.125 352-237-8525
KOBEFAA ID OBE, AWOS-3, KOBE 031855Z AUTO 27008G14KT A3001 RMK AO2 PWINO Follow KOBE on AV Mobile Okeechobee County Airport 118.675 863-467-1148
KORLFAA ID ORL, ASOS, KORL 031853Z 21014KT 10SM FEW019 BKN041 26/23 A2997 RMK AO2 SLP150 T02610228 Follow KORL on AV Mobile ORLANDO EXECUTIVE AIRPORT 407-658-6753
KMCOFAA ID MCO, ASOS, KMCO 031853Z AUTO 20014KT 10SM BKN015 26/23 A2997 RMK AO2 SLP148 T02560233 TSNO Follow KMCO on AV Mobile ORLANDO INTERNATIONAL AIRPORT 407-855-5235
KSFBFAA ID SFB, ASOS, KSFB 031853Z 22015G22KT 10SM CLR 28/22 A2995 RMK AO2 SLP140 T02780222 Follow KSFB on AV Mobile ORLANDO SANFORD AIRPORT 407-321-9384
KISMFAA ID ISM, AWOS-3, KISM 031850Z 20012G18KT 7SM BKN012 26/23 A2998 Follow KISM on AV Mobile Orlando, Kissimmee Municipal Airport 128.775 407-847-0533
KOMNFAA ID OMN, AWOS-3, KOMN 031850Z 21014G18KT 7SM SCT015 MM/MM A2992 Follow KOMN on AV Mobile Ormond Beach, Ormond Beach Municipal Airport 118.475 386-615-7084
28JFAA ID 28J, AWOS-3, K88M 031905Z AUTO 00000KT 7SM 29/04 A2981 Follow  on AV Mobile PALATKA 119.92 386-312-2212
KFINFAA ID FIN, AWOS-3, KFIN 031750Z 21011KT 7SM OVC009 24/22 A2992 Follow KFIN on AV Mobile PALM COAST 128.325 386-437-7334
KECPFAA ID ECP, ASOS, KECP 031853Z 18008KT 10SM CLR 34/22 A2988 RMK AO2 SLP129 T03440217 Follow KECP on AV Mobile PANAMA CITY 119.975 850-235-7857
KPFNICAO ID KPFN, KPFN 030253Z VRB03KT 10SM FEW023 25/23 A2989 Follow KPFN on AV Mobile PANAMA CITY-BAY CTY INTERNATIONAL
KPAMFAA ID PAM, KPAM 031758Z AUTO 24010KT 10SM CLR 33/25 A2990 RMK AO2 SLP128 T03260248 10327 20271 58003 $ Follow KPAM on AV Mobile Tyndall Air Force Base
KPNSFAA ID PNS, ASOS, KPNS 031853Z 16008KT 10SM FEW080 34/17 A2990 RMK AO2 SLP125 T03440172 Follow KPNS on AV Mobile PENSACOLA REGIONAL AIRPORT 850-436-4799
KNPAFAA ID NPA, KNPA 031856Z 21010KT 10SM FEW040 SCT100 SCT250 34/21 A2990 RMK AO2 SLP126 T03440206 $ Follow KNPA on AV Mobile Pensacola, Naval Air Station
K40JFAA ID 40J, AWOS-3PT, K40J 031835Z AUTO 26005KT 10SM SCT035 SCT043 SCT049 31/23 A2990 RMK AO2 LTG DSNT NE AND S T03090231 Follow K40J on AV Mobile PERRY-FOLEY AIRPORT 118.375 850-838-3526
FA54FAA ID FA54, Belfort CORAL CREEK
KPCMFAA ID PCM, AWOS-3, KPCM 031855Z AUTO 22009G14KT 10SM SCT018 SCT100 27/25 A2999 RMK AO2 Follow KPCM on AV Mobile Plant City, Plant City Municipal Airport 120.025 813-764-8259
KPMPFAA ID PMP, ASOS, KPMP 031853Z 15016G22KT 10SM SCT030CB BKN060 32/23 A2999 RMK AO2 LTG DSNT S AND SW SLP154 T03170233 Follow KPMP on AV Mobile POMPANO BEACH AIRPARK 954-783-3720
K1J3ICAO ID K1J3 Ponce De Leon Inlet
KPGDFAA ID PGD, ASOS, KPGD 031853Z AUTO 23009KT 10SM OVC090 27/21 A3002 RMK AO2 SLP165 T02670206 Follow KPGD on AV Mobile PUNTA GORDA CHARLOTTE COUNTY 135.675 941-639-0076
2J9FAA ID 2J9, AWOS-3, K88M 031905Z AUTO 00000KT 7SM 29/04 A2981 Follow  on AV Mobile QUINCY 118.975 (850) 627-6264
K1J5ICAO ID K1J5 Santa Rosa Coast Guard Station
KSRQFAA ID SRQ, ASOS, KSRQ 031853Z 26008KT 10SM FEW055 28/21 A2998 RMK AO2 SLP150 T02830211 Follow KSRQ on AV Mobile SARASOTA/BRADENTON INTERNATIONAL . 124.375 941-359-0117
KSEFFAA ID SEF, AWOS-3 SEBRING 119.475 863-655-6424
KSGJFAA ID SGJ, AWOS-3, KSGJ 031758Z 21011G18KT 4SM -RA BR OVC007 26/24 A2989 RMK AO2 RAE03B42 SLP121 P0000 60004 T02610244 10272 20244 58004 Follow KSGJ on AV Mobile St. Augustine, St. Augustine Airport 904-824-7084
KPIEFAA ID PIE, ASOS, KPIE 031853Z 23010KT 10SM FEW015 BKN090 27/24 A2996 RMK AO2 SLP144 T02720239 Follow KPIE on AV Mobile ST PETERSBURG/CLEARWATER 727-531-3456
KSPGFAA ID SPG, ASOS, KSPG 031853Z 26015G22KT 10SM SCT100 27/22 A2995 RMK AO2 SLP141 T02720222 Follow KSPG on AV Mobile ST PETERSBURG WHITTED AIRPORT 118.875 727-821-4334
KSUAFAA ID SUA, AWOS-3, KSUA 031847Z 30010G18KT 7SM VCSH SCT025 BKN040 30/22 A2999 Follow KSUA on AV Mobile Stuart, Witham Field Airport 772-692-7399
KTLHFAA ID TLH, ASOS, KTLH 031853Z 35007KT 10SM SCT040 SCT250 35/23 A2988 RMK AO2 SLP117 T03500233 Follow KTLH on AV Mobile TALLAHASSEE REGIONAL AIRPORT 850-576-3665
KTBWICAO ID KTBW Tampa Bay Area
KMCFFAA ID MCF, KMCF 031758Z AUTO 20008KT 10SM BKN080 26/26 A2999 RMK AO2 DZE16 SLP159 P0000 60141 T02570257 10257 20220 56006 Follow KMCF on AV Mobile Macdill Air Force Base, Fl.
KTPAFAA ID TPA, ASOS, KTPA 031853Z 20007KT 10SM SCT017 OVC100 27/24 A2997 RMK AO2 SLP149 T02670239 Follow KTPA on AV Mobile TAMPA INTERNATIONAL AIRPORT 813-873-7228
KTPFFAA ID TPF, AWOS-3, KTPF 031835Z AUTO 23008KT 10SM SCT023 BKN090 27/25 A2998 RMK AO2 Follow KTPF on AV Mobile Tampa, Peter O Knight Airport 118.925 813-251-6824
KVDFFAA ID VDF, AWOS-3, KVDF 031855Z AUTO 22009KT 10SM SCT022 BKN100 27/23 A2998 RMK AO2 Follow KVDF on AV Mobile Tampa, Vandenberg Airport 121.125 813-630-0924
KVLGICAO ID KVLG The Villages
KVVGICAO ID KVVG, KVVG 031835Z AUTO 18013KT 10SM 24/24 A2984 RMK A01 Follow KVVG on AV Mobile The Villages
KX68ICAO ID KX68 Titusville, NASA Shuttle Landing Facility
KTIXFAA ID TIX, KTIX 031655Z 23015G20KT 7SM BKN015 BKN050 26/23 A2999 Follow KTIX on AV Mobile Titusville
KX21FAA ID X21, AWOS-3 Titusville, Arthur Dunn Air Park 119.725 321-385-0383
KTTSFAA ID TTS, KTTS 031758Z AUTO 23014G22KT 10SM BKN085 BKN120 BKN180 27/22 A2996 RMK AO2 SLP150 T02740218 10282 20254 58004 $ Follow KTTS on AV Mobile Titusville, NASA Shuttle Landing Facility
KVPSFAA ID VPS, KVPS 031855Z 20009KT 10SM SCT060 SCT110 BKN250 34/24 A2990 RMK AO2A SLP130 T03370238 $ Follow KVPS on AV Mobile Valparaiso / Eglin Air Force Base
KVNCFAA ID VNC, AWOS-3, KVNC 031815Z AUTO 21007KT 10SM FEW070 28/21 A3002 RMK AO2 Follow KVNC on AV Mobile VENICE 119.275
KX90ICAO ID KX90 Venice Long Range Navigation
KVRBFAA ID VRB, ASOS, KVRB 031853Z 26010KT 10SM CLR 31/22 A2999 RMK AO2 LTG DSNT NE AND E SLP153 T03110217 Follow KVRB on AV Mobile VERO BEACH MUNICIPAL AIRPORT 772-978-9535
F45FAA ID F45, AWOS-3, K88M 031905Z AUTO 00000KT 7SM 29/04 A2981 Follow  on AV Mobile WEST PALM BEACH 119.975 561-630-6932
KLNAFAA ID LNA, AWOS-3 WEST PALM BEACH 119.925 561-964-0308
KPBIFAA ID PBI, ASOS, KPBI 031853Z 14014KT 10SM SCT038TCU BKN060 BKN240 31/23 A2998 RMK AO2 SLP151 TCU S-W NW-NE T03110228 Follow KPBI on AV Mobile PALM BEACH INTERNATIONAL 123.75 561-683-2548
FD38FAA ID FD38, Belfort WELLINGTON AERO CLUB
X60FAA ID X60, AWOS-3, K88M 031905Z AUTO 00000KT 7SM 29/04 A2981 Follow  on AV Mobile WILLISTON 118.425 352-528-9949
KGIFFAA ID GIF, ASOS, KGIF 031853Z AUTO 22008KT 10SM SCT019 27/23 A2999 RMK AO2 SLP154 T02670228 TSNO Follow KGIF on AV Mobile WINTER HAVENS GILBERT AIRPORT 133.675 863-956-2097
KZPHFAA ID ZPH, ASOS, KZPH 031855Z AUTO 00000KT 10SM SCT100 24/24 A2997 RMK AO2 Follow KZPH on AV Mobile ZEPHYRHILLS 118.975 813-780-0031

Click on the AV Mobile icon AV Mobile icon by any station to follow that AWOS feed on AirportView.net Mobile.

Garmin aera 796 $1999 at Avionics Specialists LLC
Bose A20 Aviation Headsets $995 at Avionics Specialists LLC